New Garden, Ohio
Current Conditions -  °F | °C
As of 8:47 PM on Saturday 25 Oct 2014 (Local Time) from KBVI Reporting Station
Clear Clear  
Wind Chill: 61°   Ceiling: Unl
Heat Index: 61°   Visibility: 10mi
Dew Point: 50°   Wind: 9mph
Humidity: 68%   Direction: 270°W
Pressure: 29.75"   Gusts: 16mph
Location:  40.756°N, 80.8914°W
Report Text: KBVI 260047Z 27008G14KT 10SM CLR 16/10 A2975 RMK LAST
Loading
Personal Weather Stations






























Interactive Weather Map
Tropical Storm Tracking
New forecast layout! Learn more

10-Day Weather Forecast

Advertisements
Track Severe Weather on mobile